createdAt,value
2022-07-26T00:00:20.329Z,72.73
2022-07-26T00:03:23.202Z,73.39
2022-07-26T00:06:25.845Z,73.63
2022-07-26T00:09:27.848Z,73.18
2022-07-26T00:12:30.325Z,73.89
2022-07-26T00:15:32.355Z,74.61
2022-07-26T00:18:34.330Z,74.03
2022-07-26T00:21:40.544Z,74.74
2022-07-26T00:24:42.993Z,73.26
2022-07-26T00:27:44.739Z,73.97
2022-07-26T00:30:46.955Z,74.18
2022-07-26T00:33:49.876Z,74.71
2022-07-26T00:36:51.821Z,74.45
2022-07-26T00:39:53.819Z,74.30
2022-07-26T00:42:55.674Z,73.30
2022-07-26T00:45:58.491Z,73.52
2022-07-26T00:49:00.412Z,71.74
2022-07-26T00:52:03.546Z,69.73
2022-07-26T00:55:07.595Z,68.80
2022-07-26T00:58:09.905Z,68.62
2022-07-26T01:01:15.250Z,68.51
2022-07-26T01:04:17.968Z,67.33
2022-07-26T01:07:22.645Z,67.66
2022-07-26T01:10:25.756Z,67.84
2022-07-26T01:13:30.724Z,67.01
2022-07-26T01:16:37.757Z,66.49
2022-07-26T01:19:40.094Z,65.70
2022-07-26T01:22:44.085Z,66.53
2022-07-26T01:25:46.657Z,67.02
2022-07-26T01:28:57.334Z,67.19
2022-07-26T01:31:59.189Z,67.61
2022-07-26T01:35:00.999Z,67.79
2022-07-26T01:38:03.837Z,67.56
2022-07-26T01:41:05.640Z,68.22
2022-07-26T01:44:08.336Z,68.02
2022-07-26T01:51:08.583Z,68.16
2022-07-26T01:54:10.943Z,68.81
2022-07-26T01:57:12.957Z,69.22
2022-07-26T02:00:15.582Z,69.54
2022-07-26T02:03:18.485Z,69.63
2022-07-26T02:06:20.938Z,69.96
2022-07-26T02:09:23.063Z,70.13
2022-07-26T02:12:28.574Z,70.26
2022-07-26T02:15:31.227Z,71.42
2022-07-26T02:18:33.869Z,72.26
2022-07-26T02:21:37.252Z,72.72
2022-07-26T02:24:38.997Z,72.81
2022-07-26T02:27:40.641Z,72.67
2022-07-26T02:30:43.649Z,72.23
2022-07-26T02:33:46.483Z,72.63
2022-07-26T02:36:49.044Z,73.13
2022-07-26T02:39:50.606Z,73.65
2022-07-26T02:42:52.328Z,73.88
2022-07-26T02:46:00.939Z,73.66
2022-07-26T02:49:04.534Z,74.91
2022-07-26T02:52:06.254Z,74.59
2022-07-26T02:55:08.479Z,75.17
2022-07-26T02:58:10.154Z,75.52
2022-07-26T03:01:12.209Z,75.98
2022-07-26T03:04:15.993Z,76.26
2022-07-26T03:07:18.346Z,77.35
2022-07-26T03:10:21.129Z,77.61
2022-07-26T03:13:23.110Z,78.04
2022-07-26T03:16:29.422Z,78.63
2022-07-26T03:19:32.831Z,79.47
2022-07-26T03:22:37.487Z,78.85
2022-07-26T03:25:39.290Z,79.57
2022-07-26T03:28:42.972Z,79.40
2022-07-26T03:31:45.835Z,79.30
2022-07-26T03:34:48.853Z,79.53
2022-07-26T03:37:51.325Z,79.35
2022-07-26T03:40:56.836Z,80.10
2022-07-26T03:43:58.973Z,80.07
2022-07-26T03:47:01.619Z,79.88
2022-07-26T03:50:05.530Z,80.33
2022-07-26T03:53:07.502Z,80.19
2022-07-26T03:56:28.609Z,81.33
2022-07-26T03:59:31.013Z,80.44
2022-07-26T04:02:33.626Z,80.75
2022-07-26T04:05:36.250Z,81.44
2022-07-26T04:08:38.101Z,81.46
2022-07-26T04:11:40.536Z,81.41
2022-07-26T04:14:43.375Z,82.20
2022-07-26T04:17:46.066Z,82.19
2022-07-26T04:20:48.065Z,81.85
2022-07-26T04:23:51.479Z,81.92
2022-07-26T04:26:54.915Z,82.18
2022-07-26T04:29:57.909Z,82.19
2022-07-26T04:32:59.680Z,83.13
2022-07-26T04:36:02.355Z,82.76
2022-07-26T04:39:05.064Z,82.56
2022-07-26T04:42:08.021Z,82.77
2022-07-26T04:45:11.095Z,82.90
2022-07-26T04:48:14.113Z,83.59
2022-07-26T04:51:16.950Z,82.94
2022-07-26T04:54:21.009Z,82.83
2022-07-26T04:57:24.020Z,83.04
2022-07-26T05:00:26.162Z,83.28
2022-07-26T05:03:28.136Z,82.61
2022-07-26T05:06:32.467Z,82.45
2022-07-26T05:09:34.850Z,82.90
2022-07-26T05:12:38.050Z,82.79
2022-07-26T05:15:42.774Z,82.45
2022-07-26T05:18:49.450Z,82.86
2022-07-26T05:21:51.920Z,82.23
2022-07-26T05:24:54.238Z,81.95
2022-07-26T05:27:56.921Z,82.34
2022-07-26T05:30:59.478Z,81.47
2022-07-26T05:34:01.361Z,81.93
2022-07-26T05:37:04.330Z,81.44
2022-07-26T05:40:07.523Z,81.48
2022-07-26T05:43:10.722Z,82.07
2022-07-26T05:46:13.830Z,82.53
2022-07-26T05:49:16.445Z,82.14
2022-07-26T05:52:19.231Z,82.97
2022-07-26T05:55:25.132Z,83.79
2022-07-26T05:58:27.710Z,83.92
2022-07-26T06:01:41.859Z,84.58
2022-07-26T06:04:44.267Z,85.34
2022-07-26T06:07:50.133Z,85.72
2022-07-26T06:10:56.158Z,84.45
2022-07-26T06:13:58.418Z,85.02
2022-07-26T06:17:04.599Z,85.37
2022-07-26T06:20:07.704Z,83.48
2022-07-26T06:23:11.584Z,82.42
2022-07-26T06:26:27.260Z,82.92
2022-07-26T06:29:32.323Z,83.89
2022-07-26T06:32:35.012Z,84.27
2022-07-26T06:35:39.158Z,84.84
2022-07-26T06:38:41.917Z,83.86
2022-07-26T06:41:44.639Z,83.56
2022-07-26T06:44:47.776Z,81.18
2022-07-26T06:47:50.659Z,82.09
2022-07-26T06:50:55.816Z,81.87
2022-07-26T06:54:03.709Z,80.89
2022-07-26T06:57:06.463Z,80.92
2022-07-26T07:00:10.466Z,78.36
2022-07-26T07:03:13.599Z,76.96
2022-07-26T07:06:16.812Z,75.57
2022-07-26T07:09:19.616Z,74.48
2022-07-26T07:12:22.251Z,74.58
2022-07-26T07:15:32.112Z,76.46
2022-07-26T07:18:35.142Z,77.29
2022-07-26T07:21:37.793Z,77.48
2022-07-26T07:24:44.199Z,75.76
2022-07-26T07:27:49.201Z,73.10
2022-07-26T07:31:04.880Z,71.65
2022-07-26T07:34:10.812Z,71.23
2022-07-26T07:37:16.488Z,70.91
2022-07-26T07:40:22.112Z,70.67
2022-07-26T07:43:37.121Z,71.89
2022-07-26T07:46:39.795Z,69.87
2022-07-26T07:49:41.693Z,69.93
2022-07-26T07:52:43.830Z,69.01
2022-07-26T07:55:46.700Z,68.31
2022-07-26T07:58:53.520Z,69.91
2022-07-26T08:01:59.546Z,68.56
2022-07-26T08:05:11.408Z,68.05
2022-07-26T08:08:17.055Z,66.06
2022-07-26T08:11:19.004Z,63.92
2022-07-26T08:14:20.632Z,61.46
2022-07-26T08:17:22.412Z,62.81
2022-07-26T08:20:25.995Z,64.38
2022-07-26T08:23:28.017Z,62.76
2022-07-26T08:26:29.967Z,62.58
2022-07-26T08:29:31.829Z,63.46
2022-07-26T08:32:33.786Z,62.76
2022-07-26T08:35:35.644Z,63.87
2022-07-26T08:38:37.576Z,61.80
2022-07-26T08:41:40.536Z,62.42
2022-07-26T08:44:44.384Z,69.56
2022-07-26T08:48:07.401Z,73.93
2022-07-26T08:51:11.282Z,76.97
2022-07-26T08:54:15.505Z,78.32
2022-07-26T08:57:18.174Z,79.34
2022-07-26T09:00:24.978Z,78.07
2022-07-26T09:03:27.291Z,77.07
2022-07-26T09:06:29.164Z,76.31
2022-07-26T09:09:35.777Z,75.54
2022-07-26T09:12:38.822Z,76.33
2022-07-26T09:15:40.729Z,75.80
2022-07-26T09:18:42.516Z,75.80
2022-07-26T09:21:44.370Z,78.24
2022-07-26T09:24:47.437Z,82.27
2022-07-26T09:27:49.889Z,91.83
2022-07-26T09:30:57.981Z,97.95
2022-07-26T09:34:00.281Z,100.00
2022-07-26T09:37:02.034Z,100.00
2022-07-26T09:40:09.271Z,100.00
2022-07-26T09:43:10.955Z,100.00
2022-07-26T09:46:18.265Z,100.00
2022-07-26T09:49:21.490Z,100.00
2022-07-26T09:52:23.258Z,100.00
2022-07-26T09:55:25.242Z,100.00
2022-07-26T09:58:29.009Z,100.00
2022-07-26T10:01:31.011Z,100.00
2022-07-26T10:04:32.882Z,100.00
2022-07-26T10:07:35.123Z,100.00
2022-07-26T10:11:00.570Z,99.63
2022-07-26T10:14:40.509Z,95.96
2022-07-26T10:17:42.986Z,89.42
2022-07-26T10:20:52.002Z,89.49
2022-07-26T10:24:01.250Z,85.77
2022-07-26T10:27:03.251Z,85.47
2022-07-26T10:30:17.981Z,83.85
2022-07-26T10:33:24.468Z,83.72
2022-07-26T10:36:44.055Z,83.86
2022-07-26T10:39:45.725Z,86.00
2022-07-26T10:42:47.394Z,87.33
2022-07-26T10:45:49.496Z,88.92
2022-07-26T10:48:56.784Z,85.48
2022-07-26T10:52:09.445Z,86.85
2022-07-26T10:55:11.920Z,85.35
2022-07-26T10:58:20.422Z,77.24
2022-07-26T11:01:22.531Z,76.31
2022-07-26T11:04:25.710Z,79.74
2022-07-26T11:07:46.945Z,74.57
2022-07-26T11:10:49.231Z,76.41
2022-07-26T11:13:51.050Z,74.97
2022-07-26T11:16:53.040Z,74.66
2022-07-26T11:19:55.175Z,74.82
2022-07-26T11:22:57.206Z,72.83
2022-07-26T11:26:02.468Z,73.00
2022-07-26T11:29:06.742Z,70.01
2022-07-26T11:32:25.593Z,65.20
2022-07-26T11:35:29.706Z,67.18
2022-07-26T11:38:48.595Z,69.15
2022-07-26T11:41:52.291Z,71.23
2022-07-26T11:44:54.348Z,65.51
2022-07-26T11:47:58.842Z,63.81
2022-07-26T11:51:15.611Z,61.24
2022-07-26T11:54:17.454Z,60.31
2022-07-26T11:57:19.889Z,58.44
2022-07-26T12:00:23.634Z,59.80
2022-07-26T12:03:25.456Z,61.80
2022-07-26T12:06:28.028Z,62.96
2022-07-26T12:09:40.959Z,60.02
2022-07-26T12:12:42.712Z,55.98
2022-07-26T12:15:50.473Z,54.90
2022-07-26T12:18:52.374Z,56.73
2022-07-26T12:22:16.208Z,60.58
2022-07-26T12:25:25.657Z,63.06
2022-07-26T12:28:48.085Z,65.92
2022-07-26T12:32:13.100Z,67.72
2022-07-26T12:35:16.775Z,70.32
2022-07-26T12:38:18.582Z,70.89
2022-07-26T12:41:40.246Z,72.12
2022-07-26T12:44:42.636Z,70.88
2022-07-26T12:47:48.233Z,68.19
2022-07-26T12:50:49.805Z,64.74
2022-07-26T12:53:51.556Z,62.61
2022-07-26T12:56:53.549Z,63.27
2022-07-26T12:59:56.312Z,60.58
2022-07-26T13:02:58.079Z,58.85
2022-07-26T13:05:59.931Z,57.83
2022-07-26T13:09:01.591Z,55.80
2022-07-26T13:12:05.267Z,54.48
2022-07-26T13:15:07.673Z,54.09
2022-07-26T13:18:10.098Z,52.01
2022-07-26T13:21:12.160Z,51.68
2022-07-26T13:24:14.304Z,50.61
2022-07-26T13:27:18.374Z,51.28
2022-07-26T13:30:22.243Z,50.75
2022-07-26T13:33:24.266Z,51.89
2022-07-26T13:36:27.248Z,50.19
2022-07-26T13:39:31.939Z,51.95
2022-07-26T13:42:33.948Z,54.27
2022-07-26T13:45:35.992Z,51.00
2022-07-26T13:48:47.880Z,52.22
2022-07-26T13:52:03.151Z,52.21
2022-07-26T13:55:06.655Z,51.58
2022-07-26T13:58:10.273Z,52.27
2022-07-26T14:01:12.530Z,54.04
2022-07-26T14:04:15.940Z,54.80
2022-07-26T14:07:18.269Z,55.34
2022-07-26T14:10:21.716Z,55.07
2022-07-26T14:13:23.351Z,55.35
2022-07-26T14:16:27.708Z,54.56
2022-07-26T14:19:29.536Z,51.76
2022-07-26T14:22:31.483Z,51.42
2022-07-26T14:25:34.291Z,49.07
2022-07-26T14:28:36.377Z,48.93
2022-07-26T14:31:38.322Z,49.66
2022-07-26T14:34:40.565Z,50.12
2022-07-26T14:37:45.591Z,50.13
2022-07-26T14:40:48.227Z,46.97
2022-07-26T14:43:55.573Z,47.02
2022-07-26T14:46:57.827Z,46.17
2022-07-26T14:50:04.177Z,45.26
2022-07-26T14:53:08.412Z,45.00
2022-07-26T14:56:10.158Z,45.17
2022-07-26T14:59:12.799Z,45.50
2022-07-26T15:02:14.840Z,45.54
2022-07-26T15:05:18.134Z,46.22
2022-07-26T15:08:19.889Z,46.45
2022-07-26T15:11:22.180Z,47.99
2022-07-26T15:14:24.617Z,48.82
2022-07-26T15:17:26.526Z,47.86
2022-07-26T15:20:28.707Z,49.53
2022-07-26T15:23:31.374Z,49.49
2022-07-26T15:26:33.325Z,49.96
2022-07-26T15:29:36.059Z,48.73
2022-07-26T15:32:38.080Z,48.78
2022-07-26T15:35:40.878Z,48.78
2022-07-26T15:38:45.483Z,47.90
2022-07-26T15:41:51.431Z,47.64
2022-07-26T15:44:53.194Z,48.10
2022-07-26T15:48:03.202Z,47.16
2022-07-26T15:51:06.233Z,48.29
2022-07-26T15:54:13.837Z,48.77
2022-07-26T15:57:16.100Z,48.75
2022-07-26T16:00:18.716Z,49.16
2022-07-26T16:03:20.678Z,49.71
2022-07-26T16:06:22.367Z,49.57
2022-07-26T16:09:24.171Z,49.70
2022-07-26T16:12:26.043Z,48.81
2022-07-26T16:15:27.737Z,48.46
2022-07-26T16:18:29.343Z,47.76
2022-07-26T16:21:32.123Z,47.69
2022-07-26T16:24:34.426Z,46.82
2022-07-26T16:27:36.137Z,48.16
2022-07-26T16:30:38.104Z,48.43
2022-07-26T16:33:46.434Z,48.36
2022-07-26T16:36:48.765Z,47.24
2022-07-26T16:39:50.853Z,45.61
2022-07-26T16:42:52.941Z,45.05
2022-07-26T16:45:54.593Z,44.79
2022-07-26T16:48:56.635Z,45.30
2022-07-26T16:51:58.685Z,43.70
2022-07-26T16:55:00.408Z,42.04
2022-07-26T16:58:02.103Z,42.46
2022-07-26T17:01:03.960Z,43.03
2022-07-26T17:04:05.985Z,41.44
2022-07-26T17:07:24.570Z,39.80
2022-07-26T17:10:27.542Z,35.86
2022-07-26T17:13:29.565Z,38.61
2022-07-26T17:16:31.828Z,39.13
2022-07-26T17:19:33.470Z,41.19
2022-07-26T17:22:35.417Z,43.17
2022-07-26T17:25:37.335Z,44.23
2022-07-26T17:28:38.960Z,44.59
2022-07-26T17:31:40.708Z,40.08
2022-07-26T17:34:42.557Z,37.32
2022-07-26T17:37:44.636Z,38.84
2022-07-26T17:40:49.247Z,41.98
2022-07-26T17:43:53.126Z,44.71
2022-07-26T17:46:58.650Z,47.21
2022-07-26T17:50:37.734Z,49.20
2022-07-26T17:53:33.970Z,50.16
2022-07-26T17:56:36.722Z,50.34
2022-07-26T17:59:38.509Z,50.71
2022-07-26T18:02:40.360Z,50.75
2022-07-26T18:05:41.889Z,51.38
2022-07-26T18:08:43.698Z,51.84
2022-07-26T18:11:45.816Z,53.87
2022-07-26T18:14:47.689Z,52.84
2022-07-26T18:17:49.732Z,53.66
2022-07-26T18:20:52.761Z,53.61
2022-07-26T18:24:15.223Z,53.20
2022-07-26T18:27:16.378Z,54.04
2022-07-26T18:30:18.205Z,53.85
2022-07-26T18:33:20.074Z,54.88
2022-07-26T18:36:21.912Z,55.07
2022-07-26T18:39:23.634Z,55.88
2022-07-26T18:42:25.873Z,56.38
2022-07-26T18:45:27.598Z,56.47
2022-07-26T18:48:29.328Z,54.81
2022-07-26T18:51:31.746Z,56.03
2022-07-26T18:54:33.430Z,55.23
2022-07-26T18:57:36.388Z,53.65
2022-07-26T19:00:38.083Z,54.98
2022-07-26T19:03:39.864Z,55.40
2022-07-26T19:06:41.631Z,57.28
2022-07-26T19:09:43.325Z,57.22
2022-07-26T19:12:45.461Z,56.76
2022-07-26T19:15:49.943Z,57.59
2022-07-26T19:18:56.844Z,56.47
2022-07-26T19:21:58.970Z,57.36
2022-07-26T19:25:01.153Z,57.93
2022-07-26T19:28:05.869Z,58.58
2022-07-26T19:31:07.965Z,58.89
2022-07-26T19:34:10.129Z,57.96
2022-07-26T19:37:12.283Z,59.96
2022-07-26T19:40:14.656Z,59.63
2022-07-26T19:43:16.629Z,61.02
2022-07-26T19:46:18.612Z,61.52
2022-07-26T19:49:21.006Z,60.47
2022-07-26T19:52:22.879Z,61.32
2022-07-26T19:55:24.734Z,60.41
2022-07-26T19:58:27.058Z,60.87
2022-07-26T20:01:29.856Z,62.01
2022-07-26T20:04:31.670Z,63.24
2022-07-26T20:07:33.370Z,62.23
2022-07-26T20:10:36.583Z,63.33
2022-07-26T20:13:39.391Z,63.85
2022-07-26T20:16:41.121Z,63.55
2022-07-26T20:19:43.238Z,63.86
2022-07-26T20:22:44.864Z,63.51
2022-07-26T20:25:46.671Z,63.29
2022-07-26T20:28:50.327Z,65.05
2022-07-26T20:31:52.125Z,64.85
2022-07-26T20:34:53.960Z,65.41
2022-07-26T20:37:55.605Z,66.14
2022-07-26T20:40:57.508Z,65.76
2022-07-26T20:44:03.250Z,66.25
2022-07-26T20:47:06.106Z,67.35
2022-07-26T20:50:09.971Z,68.21
2022-07-26T20:53:11.913Z,68.47
2022-07-26T20:56:37.260Z,69.20
2022-07-26T20:59:39.393Z,68.24
2022-07-26T21:02:41.240Z,68.83
2022-07-26T21:05:44.125Z,69.75
2022-07-26T21:08:45.941Z,69.95
2022-07-26T21:11:47.675Z,69.90
2022-07-26T21:14:50.283Z,70.74
2022-07-26T21:17:53.232Z,72.61
2022-07-26T21:20:54.862Z,71.63
2022-07-26T21:23:56.516Z,72.29
2022-07-26T21:26:58.546Z,72.37
2022-07-26T21:30:00.437Z,73.22
2022-07-26T21:33:02.358Z,74.15
2022-07-26T21:36:04.152Z,72.96
2022-07-26T21:39:12.653Z,74.74
2022-07-26T21:42:14.940Z,75.41
2022-07-26T21:45:16.910Z,75.56
2022-07-26T21:48:18.619Z,76.38
2022-07-26T21:51:20.321Z,76.91
2022-07-26T21:54:22.096Z,76.85
2022-07-26T21:57:23.891Z,77.79
2022-07-26T22:00:25.713Z,78.53
2022-07-26T22:03:27.686Z,79.00
2022-07-26T22:06:33.929Z,79.30
2022-07-26T22:09:35.643Z,80.06
2022-07-26T22:12:37.469Z,81.31
2022-07-26T22:15:39.266Z,82.01
2022-07-26T22:18:41.039Z,82.05
2022-07-26T22:21:42.890Z,82.06
2022-07-26T22:24:44.584Z,82.93
2022-07-26T22:27:46.270Z,83.18
2022-07-26T22:30:48.029Z,82.72
2022-07-26T22:33:51.307Z,82.81
2022-07-26T22:36:53.096Z,83.23
2022-07-26T22:39:54.923Z,83.47
2022-07-26T22:42:58.717Z,83.76
2022-07-26T22:46:00.533Z,84.00
2022-07-26T22:49:02.446Z,84.70
2022-07-26T22:52:04.189Z,85.04
2022-07-26T22:55:06.530Z,85.08
2022-07-26T22:58:08.332Z,83.82
2022-07-26T23:01:10.077Z,85.55
2022-07-26T23:04:12.025Z,85.76
2022-07-26T23:07:14.682Z,86.48
2022-07-26T23:10:17.044Z,86.12
2022-07-26T23:13:18.796Z,86.13
2022-07-26T23:16:20.457Z,85.75
2022-07-26T23:19:24.930Z,86.37
2022-07-26T23:22:26.775Z,87.18
2022-07-26T23:25:28.695Z,88.05
2022-07-26T23:28:37.001Z,87.60
2022-07-26T23:31:39.921Z,87.95
2022-07-26T23:34:41.570Z,89.25
2022-07-26T23:37:43.349Z,89.57
2022-07-26T23:40:45.005Z,90.43
2022-07-26T23:43:46.799Z,90.26
2022-07-26T23:46:48.498Z,89.01
2022-07-26T23:49:50.284Z,89.72
2022-07-26T23:52:51.878Z,89.93
2022-07-26T23:55:53.661Z,89.29
2022-07-26T23:58:55.457Z,90.34
